Time;durP1;ratioP1;P1;durP2;ratioP2;P2;SDS_P1;SDS_P2;PMS_P1;PMS_P2;Temp;Humidity;BMP_temperature;BMP_pressure;BME280_temperature;BME280_humidity;BME280_pressure;Samples;Min_cycle;Max_cycle;Signal;HPM_P1;HPM_P2
2023/03/31 00:03:01;;;;;;;15.45;6.72;;;;;;;;;;6236690;22;20167;-88
2023/03/31 00:06:06;;;;;;;38.27;7.00;;;;;;;;;;6239238;22;20198;-87
2023/03/31 00:09:11;;;;;;;40.45;7.45;;;;;;;;;;6238813;23;20167;-88
2023/03/31 00:12:17;;;;;;;42.92;7.57;;;;;;;;;;6239624;23;20154;-87
2023/03/31 00:15:22;;;;;;;50.03;7.55;;;;;;;;;;6239036;23;20768;-87
2023/03/31 00:18:29;;;;;;;83.20;7.87;;;;;;;;;;6239102;23;20155;-89
2023/03/31 00:21:36;;;;;;;113.07;8.23;;;;;;;;;;6238640;22;20162;-87
2023/03/31 00:24:41;;;;;;;150.37;9.27;;;;;;;;;;6239442;23;20162;-87
2023/03/31 00:27:49;;;;;;;61.35;6.75;;;;;;;;;;6236899;23;20186;-89
2023/03/31 00:30:54;;;;;;;75.57;7.37;;;;;;;;;;6238023;23;20171;-90
2023/03/31 00:34:00;;;;;;;28.57;6.60;;;;;;;;;;6237323;23;20170;-86
2023/03/31 00:37:05;;;;;;;57.40;7.40;;;;;;;;;;6237603;23;20171;-87
2023/03/31 00:40:10;;;;;;;60.50;6.37;;;;;;;;;;6255997;23;20166;-87
2023/03/31 00:43:29;;;;;;;54.73;6.80;;;;;;;;;;6237422;23;20205;-89
2023/03/31 00:46:35;;;;;;;43.23;5.87;;;;;;;;;;6236924;23;20198;-88
2023/03/31 00:49:44;;;;;;;61.67;6.53;;;;;;;;;;6239552;22;20166;-91
2023/03/31 00:52:50;;;;;;;65.33;6.23;;;;;;;;;;6238593;23;20618;-91
2023/03/31 00:55:56;;;;;;;40.17;6.40;;;;;;;;;;6237778;23;20166;-89
2023/03/31 00:59:03;;;;;;;72.97;6.93;;;;;;;;;;6238433;23;20171;-88
2023/03/31 01:02:10;;;;;;;53.33;7.23;;;;;;;;;;6236601;23;20174;-87
2023/03/31 01:05:17;;;;;;;46.30;6.43;;;;;;;;;;6238912;23;20206;-89
2023/03/31 01:08:24;;;;;;;61.93;6.77;;;;;;;;;;6238072;23;20609;-89
2023/03/31 01:11:30;;;;;;;42.13;6.27;;;;;;;;;;6238031;23;20240;-88
2023/03/31 01:14:41;;;;;;;85.63;7.80;;;;;;;;;;6237482;23;20285;-87
2023/03/31 01:17:48;;;;;;;28.37;6.03;;;;;;;;;;6237150;23;20227;-88
2023/03/31 01:21:14;;;;;;;39.83;6.10;;;;;;;;;;6241633;22;20154;-90
2023/03/31 01:24:46;;;;;;;43.37;6.23;;;;;;;;;;6258039;22;20211;-88
2023/03/31 01:27:58;;;;;;;44.43;6.07;;;;;;;;;;6236743;23;20197;-86
2023/03/31 01:31:12;;;;;;;41.70;6.77;;;;;;;;;;6235871;22;20705;-87
2023/03/31 01:34:29;;;;;;;65.90;6.67;;;;;;;;;;6236894;23;20617;-89
2023/03/31 01:37:57;;;;;;;58.77;6.97;;;;;;;;;;6237360;23;20218;-88
2023/03/31 01:41:16;;;;;;;42.07;7.40;;;;;;;;;;6237176;23;20166;-88
2023/03/31 01:44:26;;;;;;;38.53;6.83;;;;;;;;;;6238126;22;20202;-88
2023/03/31 01:47:39;;;;;;;62.80;8.30;;;;;;;;;;6237722;22;20210;-88
2023/03/31 01:50:46;;;;;;;29.73;7.37;;;;;;;;;;6237581;23;20171;-89
2023/03/31 01:53:55;;;;;;;53.70;8.17;;;;;;;;;;6236886;23;20226;-89
2023/03/31 01:57:04;;;;;;;39.83;8.20;;;;;;;;;;6254599;23;20174;-88
2023/03/31 02:00:11;;;;;;;71.80;8.17;;;;;;;;;;6235705;22;20209;-87
2023/03/31 02:03:33;;;;;;;128.00;10.33;;;;;;;;;;6255554;23;20689;-87
2023/03/31 02:06:46;;;;;;;41.83;8.67;;;;;;;;;;6237117;23;20191;-87
2023/03/31 02:09:54;;;;;;;40.63;9.03;;;;;;;;;;6235818;23;20209;-87
2023/03/31 02:13:02;;;;;;;39.87;8.23;;;;;;;;;;6237137;22;20174;-87
2023/03/31 02:16:11;;;;;;;57.93;9.57;;;;;;;;;;6236306;22;20166;-86
2023/03/31 02:19:18;;;;;;;70.13;9.50;;;;;;;;;;6238561;23;20241;-88
2023/03/31 02:22:27;;;;;;;34.90;8.77;;;;;;;;;;6236984;23;20174;-88
2023/03/31 02:25:34;;;;;;;33.73;8.33;;;;;;;;;;6235598;22;20258;-89
2023/03/31 02:28:41;;;;;;;28.87;9.10;;;;;;;;;;6237283;22;20190;-86
2023/03/31 02:31:48;;;;;;;61.20;9.57;;;;;;;;;;6237860;23;20190;-89
2023/03/31 02:34:54;;;;;;;40.03;9.23;;;;;;;;;;6237373;23;20175;-91
2023/03/31 02:38:00;;;;;;;107.73;9.70;;;;;;;;;;6235565;23;20166;-88
2023/03/31 02:41:05;;;;;;;58.53;9.13;;;;;;;;;;6234868;23;20166;-88
2023/03/31 02:44:16;;;;;;;34.10;8.53;;;;;;;;;;6238431;22;20175;-87
2023/03/31 02:47:22;;;;;;;43.47;8.07;;;;;;;;;;6238141;22;20649;-89
2023/03/31 02:50:27;;;;;;;52.23;8.73;;;;;;;;;;6239785;23;20241;-86
2023/03/31 02:53:38;;;;;;;86.03;10.37;;;;;;;;;;6240470;23;20201;-89
2023/03/31 02:56:55;;;;;;;31.30;10.10;;;;;;;;;;6238755;23;20246;-86
2023/03/31 03:00:08;;;;;;;76.90;9.37;;;;;;;;;;6239567;23;20168;-90
2023/03/31 03:03:37;;;;;;;73.00;9.87;;;;;;;;;;6238593;23;20610;-86
2023/03/31 03:06:45;;;;;;;59.70;8.73;;;;;;;;;;6237750;23;20354;-86
2023/03/31 03:10:02;;;;;;;66.17;8.80;;;;;;;;;;6238774;22;20147;-88
2023/03/31 03:13:10;;;;;;;55.67;8.17;;;;;;;;;;6239515;22;20237;-88
2023/03/31 03:16:20;;;;;;;43.17;8.43;;;;;;;;;;6238308;23;20170;-88
2023/03/31 03:19:25;;;;;;;117.87;9.63;;;;;;;;;;6238663;23;20170;-86
2023/03/31 03:22:30;;;;;;;167.83;10.83;;;;;;;;;;6236772;23;20166;-88
2023/03/31 03:25:37;;;;;;;71.13;8.67;;;;;;;;;;6238153;23;20150;-90
2023/03/31 03:28:42;;;;;;;88.63;8.83;;;;;;;;;;6236511;23;20162;-90
2023/03/31 03:31:49;;;;;;;63.03;9.70;;;;;;;;;;6256954;23;20166;-86
2023/03/31 03:34:54;;;;;;;87.77;10.60;;;;;;;;;;6237337;23;20174;-86
2023/03/31 03:37:59;;;;;;;47.00;9.57;;;;;;;;;;6253869;22;20170;-89
2023/03/31 03:41:05;;;;;;;97.33;10.73;;;;;;;;;;6237359;23;20162;-88
2023/03/31 03:44:10;;;;;;;90.87;9.67;;;;;;;;;;6237858;22;20494;-89
2023/03/31 03:47:16;;;;;;;52.30;9.63;;;;;;;;;;6236858;23;20621;-87
2023/03/31 03:50:21;;;;;;;71.63;9.77;;;;;;;;;;6237331;23;20170;-89
2023/03/31 03:53:26;;;;;;;43.30;9.07;;;;;;;;;;6236760;23;20175;-88
2023/03/31 03:56:31;;;;;;;78.53;10.57;;;;;;;;;;6237284;23;20163;-88
2023/03/31 03:59:36;;;;;;;25.37;9.83;;;;;;;;;;6238300;23;20230;-89
2023/03/31 04:03:11;;;;;;;78.57;10.23;;;;;;;;;;6236474;23;20170;-91
2023/03/31 04:06:18;;;;;;;71.60;9.80;;;;;;;;;;6237615;23;20616;-89
2023/03/31 04:09:23;;;;;;;42.40;9.53;;;;;;;;;;6236689;23;20174;-87
2023/03/31 04:12:28;;;;;;;18.73;8.30;;;;;;;;;;6238054;22;20142;-87
2023/03/31 04:15:54;;;;;;;49.87;10.00;;;;;;;;;;6238437;22;20725;-89
2023/03/31 04:19:02;;;;;;;39.30;11.03;;;;;;;;;;6238954;23;20170;-90
2023/03/31 04:22:10;;;;;;;45.13;10.30;;;;;;;;;;6236124;23;20174;-86
2023/03/31 04:25:16;;;;;;;34.53;10.10;;;;;;;;;;6256874;22;20166;-90
2023/03/31 04:28:20;;;;;;;32.70;9.90;;;;;;;;;;6237566;22;20213;-89
2023/03/31 04:31:25;;;;;;;40.67;10.67;;;;;;;;;;6238163;23;20170;-88
2023/03/31 04:34:35;;;;;;;69.80;11.20;;;;;;;;;;6238700;23;20167;-92
2023/03/31 04:37:41;;;;;;;57.23;17.47;;;;;;;;;;6239570;23;20166;-87
2023/03/31 04:40:47;;;;;;;34.50;12.70;;;;;;;;;;6238882;23;20153;-89
2023/03/31 04:43:52;;;;;;;37.17;12.57;;;;;;;;;;6238582;23;20165;-89
2023/03/31 04:46:57;;;;;;;50.50;11.80;;;;;;;;;;6236420;23;20190;-88
2023/03/31 04:50:02;;;;;;;34.07;11.37;;;;;;;;;;6237101;23;20166;-87
2023/03/31 04:53:09;;;;;;;75.17;13.50;;;;;;;;;;6236343;23;20171;-87
2023/03/31 04:56:14;;;;;;;50.03;14.50;;;;;;;;;;6237914;23;20174;-87
2023/03/31 04:59:19;;;;;;;29.23;12.17;;;;;;;;;;6238013;23;20236;-88
2023/03/31 05:02:27;;;;;;;22.70;10.83;;;;;;;;;;6238854;23;20338;-88
2023/03/31 05:05:31;;;;;;;22.40;10.47;;;;;;;;;;6239062;23;20167;-90
2023/03/31 05:08:38;;;;;;;19.80;9.37;;;;;;;;;;6237165;23;20305;-89
2023/03/31 05:11:44;;;;;;;32.53;9.20;;;;;;;;;;6237418;23;20222;-88
2023/03/31 05:14:49;;;;;;;25.90;9.97;;;;;;;;;;6239134;22;20167;-90
2023/03/31 05:17:55;;;;;;;32.13;10.37;;;;;;;;;;6237925;22;20213;-87
2023/03/31 05:21:38;;;;;;;18.83;9.73;;;;;;;;;;6235046;23;20166;-88
2023/03/31 05:24:45;;;;;;;25.77;10.47;;;;;;;;;;6238341;23;20166;-88
2023/03/31 05:27:50;;;;;;;19.87;9.87;;;;;;;;;;6239137;23;20195;-89
2023/03/31 05:30:55;;;;;;;28.20;11.47;;;;;;;;;;6239195;23;20175;-89
2023/03/31 05:34:01;;;;;;;21.80;10.30;;;;;;;;;;6239852;23;20175;-90
2023/03/31 05:37:06;;;;;;;35.53;9.93;;;;;;;;;;6239751;23;20194;-88
2023/03/31 05:40:13;;;;;;;20.40;10.17;;;;;;;;;;6237867;23;20252;-87
2023/03/31 05:43:18;;;;;;;19.37;9.73;;;;;;;;;;6240516;22;20154;-87
2023/03/31 05:46:23;;;;;;;22.37;9.97;;;;;;;;;;6240103;22;20171;-88
2023/03/31 05:49:29;;;;;;;18.20;9.30;;;;;;;;;;6238427;23;20254;-91
2023/03/31 05:52:37;;;;;;;20.07;9.60;;;;;;;;;;6238952;23;20222;-88
2023/03/31 05:55:45;;;;;;;20.13;8.47;;;;;;;;;;6237949;23;20174;-89
2023/03/31 05:58:50;;;;;;;12.37;6.73;;;;;;;;;;6236777;23;20170;-90
2023/03/31 06:01:55;;;;;;;11.70;6.87;;;;;;;;;;6238107;23;20248;-89
2023/03/31 06:05:00;;;;;;;11.63;6.20;;;;;;;;;;6238127;23;20186;-89
2023/03/31 06:08:06;;;;;;;14.60;6.60;;;;;;;;;;6239957;23;20198;-87
2023/03/31 06:11:14;;;;;;;14.03;7.13;;;;;;;;;;6240218;23;20194;-90
2023/03/31 06:14:19;;;;;;;13.50;7.47;;;;;;;;;;6240932;23;20174;-90
2023/03/31 06:17:24;;;;;;;12.88;7.03;;;;;;;;;;6240769;22;20170;-90
2023/03/31 06:20:29;;;;;;;12.07;6.17;;;;;;;;;;6241479;23;20211;-89
2023/03/31 06:23:35;;;;;;;16.63;10.73;;;;;;;;;;6243174;23;20170;-88
2023/03/31 06:26:42;;;;;;;14.73;7.50;;;;;;;;;;6243431;23;20166;-91
2023/03/31 06:29:49;;;;;;;15.20;8.13;;;;;;;;;;6242817;23;20167;-90
2023/03/31 06:32:53;;;;;;;13.47;6.80;;;;;;;;;;6243635;23;20245;-89
2023/03/31 06:36:00;;;;;;;18.03;9.23;;;;;;;;;;6242288;23;20166;-90
2023/03/31 06:39:05;;;;;;;16.33;8.10;;;;;;;;;;6240790;23;20174;-89
2023/03/31 06:42:11;;;;;;;14.43;7.33;;;;;;;;;;6242149;23;20620;-92
2023/03/31 06:45:18;;;;;;;14.83;7.20;;;;;;;;;;6241875;23;20344;-88
2023/03/31 06:48:23;;;;;;;13.85;7.55;;;;;;;;;;6240973;22;20214;-89
2023/03/31 06:51:29;;;;;;;14.40;8.00;;;;;;;;;;6241766;22;20693;-90
2023/03/31 06:54:34;;;;;;;14.10;6.55;;;;;;;;;;6244184;23;20194;-88
2023/03/31 06:57:45;;;;;;;13.33;6.73;;;;;;;;;;6240486;23;20170;-89
2023/03/31 07:00:51;;;;;;;26.07;8.90;;;;;;;;;;6241131;22;20217;-90
2023/03/31 07:03:57;;;;;;;33.70;11.40;;;;;;;;;;6242578;23;20602;-89
2023/03/31 07:07:02;;;;;;;29.30;10.53;;;;;;;;;;6260778;22;20167;-89
2023/03/31 07:10:08;;;;;;;20.10;8.50;;;;;;;;;;6242604;23;20174;-89
2023/03/31 07:13:16;;;;;;;17.43;7.10;;;;;;;;;;6243414;23;20618;-88
2023/03/31 07:16:22;;;;;;;15.80;8.03;;;;;;;;;;6242683;22;20179;-90
2023/03/31 07:19:27;;;;;;;14.30;7.88;;;;;;;;;;6241472;22;20205;-87
2023/03/31 07:23:02;;;;;;;16.20;7.47;;;;;;;;;;6243519;22;20175;-91
2023/03/31 07:26:07;;;;;;;17.95;8.00;;;;;;;;;;6241492;23;20194;-88
2023/03/31 07:29:14;;;;;;;26.73;9.02;;;;;;;;;;6242062;23;20631;-91
2023/03/31 07:32:21;;;;;;;25.03;7.63;;;;;;;;;;6242997;22;20182;-90
2023/03/31 07:35:28;;;;;;;22.52;7.82;;;;;;;;;;6244735;22;20259;-89
2023/03/31 07:38:33;;;;;;;17.77;9.13;;;;;;;;;;6244281;23;20314;-91
2023/03/31 07:41:38;;;;;;;21.00;10.02;;;;;;;;;;6244052;23;20162;-87
2023/03/31 07:44:45;;;;;;;25.02;11.77;;;;;;;;;;6241744;23;20167;-92
2023/03/31 07:47:50;;;;;;;34.20;10.77;;;;;;;;;;6240665;23;20194;-91
2023/03/31 07:50:55;;;;;;;19.20;8.05;;;;;;;;;;6243656;23;20233;-90
2023/03/31 07:54:08;;;;;;;12.98;6.88;;;;;;;;;;6239604;23;20171;-90
2023/03/31 07:57:13;;;;;;;14.55;7.45;;;;;;;;;;6240486;23;20235;-92
2023/03/31 08:00:20;;;;;;;15.68;6.72;;;;;;;;;;6240187;23;20215;-89
2023/03/31 08:03:27;;;;;;;20.17;7.72;;;;;;;;;;6241300;22;20178;-90
2023/03/31 08:06:33;;;;;;;12.77;6.60;;;;;;;;;;6244453;22;20166;-89
2023/03/31 08:09:38;;;;;;;11.48;6.47;;;;;;;;;;6241176;23;20198;-90
2023/03/31 08:12:43;;;;;;;16.17;6.72;;;;;;;;;;6242818;23;20171;-91
2023/03/31 08:15:51;;;;;;;13.95;7.82;;;;;;;;;;6239180;23;20190;-91
2023/03/31 08:18:56;;;;;;;14.18;7.22;;;;;;;;;;6241686;22;20162;-89
2023/03/31 08:22:39;;;;;;;11.50;6.93;;;;;;;;;;6241369;23;20282;-90
2023/03/31 08:25:44;;;;;;;13.48;7.63;;;;;;;;;;6240683;23;20162;-92
2023/03/31 08:28:50;;;;;;;15.95;8.40;;;;;;;;;;6240565;23;20190;-91
2023/03/31 08:31:57;;;;;;;15.30;7.30;;;;;;;;;;6240326;23;20277;-91
2023/03/31 08:35:02;;;;;;;19.05;8.10;;;;;;;;;;6238669;23;20166;-91
2023/03/31 08:38:07;;;;;;;11.85;7.00;;;;;;;;;;6240133;23;20513;-89
2023/03/31 08:41:18;;;;;;;14.10;6.50;;;;;;;;;;6241410;23;20176;-90
2023/03/31 08:44:27;;;;;;;15.85;6.75;;;;;;;;;;6239714;23;20167;-89
2023/03/31 08:47:35;;;;;;;12.85;7.05;;;;;;;;;;6244671;23;20680;-90
2023/03/31 08:50:44;;;;;;;15.18;7.72;;;;;;;;;;6242053;22;20201;-89
2023/03/31 08:53:52;;;;;;;12.35;6.47;;;;;;;;;;6242183;23;20174;-88
2023/03/31 08:56:58;;;;;;;14.32;7.03;;;;;;;;;;6241807;23;20278;-89
2023/03/31 09:00:05;;;;;;;12.57;6.93;;;;;;;;;;6242840;23;20158;-88
2023/03/31 09:03:19;;;;;;;15.68;7.22;;;;;;;;;;6243185;22;20154;-94
2023/03/31 09:06:36;;;;;;;16.13;7.60;;;;;;;;;;6243854;22;20181;-91
2023/03/31 09:09:48;;;;;;;18.67;8.63;;;;;;;;;;6243863;23;20234;-90
2023/03/31 09:12:59;;;;;;;20.58;9.73;;;;;;;;;;6241257;23;20231;-91
2023/03/31 09:16:12;;;;;;;21.35;10.85;;;;;;;;;;6244069;22;20204;-91
2023/03/31 09:19:22;;;;;;;19.02;9.98;;;;;;;;;;6242474;22;20211;-87
2023/03/31 09:22:52;;;;;;;27.38;12.50;;;;;;;;;;6243295;23;20223;-90
2023/03/31 09:25:58;;;;;;;19.67;8.68;;;;;;;;;;6239838;23;20174;-90
2023/03/31 09:29:07;;;;;;;17.92;9.10;;;;;;;;;;6242090;23;20182;-91
2023/03/31 09:32:15;;;;;;;16.65;8.52;;;;;;;;;;6242379;22;20214;-91
2023/03/31 09:35:24;;;;;;;17.42;8.30;;;;;;;;;;6241840;23;20231;-88
2023/03/31 09:38:34;;;;;;;19.05;9.38;;;;;;;;;;6243559;23;20249;-91
2023/03/31 09:41:41;;;;;;;18.27;8.25;;;;;;;;;;6240254;23;20310;-89
2023/03/31 09:44:48;;;;;;;16.40;8.38;;;;;;;;;;6243468;22;20228;-90
2023/03/31 09:47:55;;;;;;;11.80;7.90;;;;;;;;;;6241342;22;20186;-90
2023/03/31 09:51:04;;;;;;;18.92;8.60;;;;;;;;;;6242307;23;20290;-92
2023/03/31 09:54:14;;;;;;;14.23;7.70;;;;;;;;;;6239752;23;20171;-91
2023/03/31 09:57:25;;;;;;;15.70;7.55;;;;;;;;;;6239144;23;20166;-89
2023/03/31 10:00:30;;;;;;;22.98;9.77;;;;;;;;;;6239551;23;20170;-91
2023/03/31 10:03:48;;;;;;;20.35;8.95;;;;;;;;;;6239667;23;20167;-88
2023/03/31 10:06:55;;;;;;;16.83;8.38;;;;;;;;;;6239493;23;20171;-90
2023/03/31 10:10:01;;;;;;;19.27;7.65;;;;;;;;;;6239759;23;20214;-89
2023/03/31 10:13:10;;;;;;;20.17;9.82;;;;;;;;;;6241088;22;20154;-89
2023/03/31 10:16:21;;;;;;;15.93;8.55;;;;;;;;;;6241434;22;20205;-89
2023/03/31 10:19:27;;;;;;;27.08;11.80;;;;;;;;;;6241724;23;20170;-91
2023/03/31 10:22:34;;;;;;;31.85;13.40;;;;;;;;;;6241756;23;20186;-89
2023/03/31 10:25:39;;;;;;;23.13;9.90;;;;;;;;;;6241917;23;20167;-90
2023/03/31 10:28:45;;;;;;;16.35;8.02;;;;;;;;;;6240569;22;20201;-90
2023/03/31 10:31:50;;;;;;;15.93;7.65;;;;;;;;;;6239990;23;20197;-88
2023/03/31 10:34:56;;;;;;;15.82;7.43;;;;;;;;;;6247557;23;20190;-91
2023/03/31 10:38:09;;;;;;;10.90;5.85;;;;;;;;;;6244766;23;20737;-90
2023/03/31 10:41:19;;;;;;;15.25;6.05;;;;;;;;;;6241053;23;20222;-89
2023/03/31 10:44:35;;;;;;;14.70;6.18;;;;;;;;;;6243486;22;20159;-91
2023/03/31 10:47:41;;;;;;;10.18;5.55;;;;;;;;;;6242190;22;20243;-90
2023/03/31 10:50:46;;;;;;;14.50;5.72;;;;;;;;;;6243518;23;20189;-93
2023/03/31 10:53:54;;;;;;;12.68;5.80;;;;;;;;;;6243185;23;20162;-90
2023/03/31 10:57:02;;;;;;;9.07;4.53;;;;;;;;;;6242080;23;20233;-90
2023/03/31 11:00:14;;;;;;;9.15;4.40;;;;;;;;;;6241935;22;20166;-91
2023/03/31 11:03:29;;;;;;;11.48;5.25;;;;;;;;;;6242727;23;20243;-90
2023/03/31 11:06:41;;;;;;;10.48;4.85;;;;;;;;;;6264700;23;20190;-90
2023/03/31 11:09:56;;;;;;;10.75;4.45;;;;;;;;;;6246381;23;20216;-90
2023/03/31 11:13:05;;;;;;;12.27;4.90;;;;;;;;;;6245499;22;20193;-91
2023/03/31 11:16:17;;;;;;;9.05;3.42;;;;;;;;;;6243645;23;20458;-91
2023/03/31 11:19:27;;;;;;;7.20;3.72;;;;;;;;;;6244984;23;20681;-91
2023/03/31 11:22:39;;;;;;;10.68;5.43;;;;;;;;;;6246695;23;20178;-89
2023/03/31 11:25:49;;;;;;;10.55;4.30;;;;;;;;;;6244080;23;20173;-89
2023/03/31 11:29:05;;;;;;;10.57;4.22;;;;;;;;;;6245939;23;20170;-92
2023/03/31 11:32:27;;;;;;;10.23;5.07;;;;;;;;;;6244757;23;20170;-92
2023/03/31 11:35:42;;;;;;;12.63;4.97;;;;;;;;;;6244668;23;20606;-91
2023/03/31 11:38:56;;;;;;;10.90;5.50;;;;;;;;;;6244974;23;20201;-91
2023/03/31 11:42:04;;;;;;;10.45;5.45;;;;;;;;;;6245511;22;20209;-93
2023/03/31 11:45:15;;;;;;;9.27;4.32;;;;;;;;;;6245250;23;20158;-94
2023/03/31 11:48:26;;;;;;;11.18;4.28;;;;;;;;;;6243057;23;20189;-91
2023/03/31 11:51:33;;;;;;;8.65;4.38;;;;;;;;;;6240565;23;20250;-89
2023/03/31 11:54:39;;;;;;;13.55;5.05;;;;;;;;;;6243633;22;20166;-91
2023/03/31 11:57:49;;;;;;;7.43;3.80;;;;;;;;;;6244340;22;20671;-89
2023/03/31 12:00:57;;;;;;;10.70;4.13;;;;;;;;;;6244412;23;20251;-91
2023/03/31 12:04:06;;;;;;;9.52;3.88;;;;;;;;;;6246962;23;20167;-92
2023/03/31 12:07:19;;;;;;;9.93;4.18;;;;;;;;;;6244904;22;20167;-89
2023/03/31 12:10:32;;;;;;;10.10;4.22;;;;;;;;;;6245761;23;20170;-91
2023/03/31 12:13:45;;;;;;;9.57;4.47;;;;;;;;;;6245006;23;20163;-90
2023/03/31 12:16:52;;;;;;;9.15;4.03;;;;;;;;;;6246516;23;20840;-90
2023/03/31 12:20:01;;;;;;;10.10;3.65;;;;;;;;;;6242070;23;20281;-88
2023/03/31 12:23:12;;;;;;;8.23;4.00;;;;;;;;;;6244442;22;20159;-89
2023/03/31 12:26:35;;;;;;;8.48;2.63;;;;;;;;;;6243388;22;20171;-88
2023/03/31 12:29:45;;;;;;;22.52;3.40;;;;;;;;;;6242912;23;20174;-89
2023/03/31 12:32:54;;;;;;;8.23;1.90;;;;;;;;;;6243137;23;20167;-91
2023/03/31 12:36:08;;;;;;;5.22;1.80;;;;;;;;;;6242943;22;20154;-90
2023/03/31 12:39:19;;;;;;;4.38;1.48;;;;;;;;;;6243643;22;20638;-88
2023/03/31 12:42:36;;;;;;;15.90;2.72;;;;;;;;;;6244057;23;20162;-90
2023/03/31 12:45:45;;;;;;;4.82;1.60;;;;;;;;;;6243006;23;20486;-91
2023/03/31 12:48:56;;;;;;;3.35;1.60;;;;;;;;;;6241952;22;20185;-91
2023/03/31 12:52:03;;;;;;;4.55;1.67;;;;;;;;;;6241957;22;20832;-90
2023/03/31 12:55:20;;;;;;;4.43;1.58;;;;;;;;;;6242643;23;20163;-90
2023/03/31 12:58:41;;;;;;;4.53;1.88;;;;;;;;;;6242736;23;20168;-90
2023/03/31 13:02:08;;;;;;;5.38;1.55;;;;;;;;;;6242085;23;20174;-91
2023/03/31 13:05:31;;;;;;;5.03;1.70;;;;;;;;;;6242115;23;20175;-89
2023/03/31 13:08:51;;;;;;;3.92;1.80;;;;;;;;;;6243415;23;20177;-90
2023/03/31 13:11:58;;;;;;;4.88;2.58;;;;;;;;;;6243296;23;20163;-89
2023/03/31 13:15:05;;;;;;;2.70;1.60;;;;;;;;;;6244239;22;20193;-89
2023/03/31 13:18:18;;;;;;;4.85;1.70;;;;;;;;;;6238185;22;20206;-87
2023/03/31 13:21:25;;;;;;;2.83;1.67;;;;;;;;;;6236505;23;20668;-87
2023/03/31 13:24:33;;;;;;;6.03;2.10;;;;;;;;;;6237175;23;20205;-88
2023/03/31 13:27:38;;;;;;;6.50;1.80;;;;;;;;;;6235891;23;20189;-87
2023/03/31 13:30:49;;;;;;;3.10;1.50;;;;;;;;;;6256379;22;20169;-90
2023/03/31 13:33:56;;;;;;;6.18;1.75;;;;;;;;;;6240320;22;20167;-87
2023/03/31 13:37:13;;;;;;;3.05;1.35;;;;;;;;;;6255744;22;20173;-85
2023/03/31 13:40:33;;;;;;;4.97;1.70;;;;;;;;;;6241330;23;20190;-90
2023/03/31 13:44:03;;;;;;;5.82;1.95;;;;;;;;;;6242841;22;20161;-89
2023/03/31 13:47:19;;;;;;;2.60;1.63;;;;;;;;;;6241906;23;20197;-93
2023/03/31 13:50:37;;;;;;;3.40;1.80;;;;;;;;;;6240348;23;20155;-89
2023/03/31 13:53:57;;;;;;;5.30;1.80;;;;;;;;;;6239747;23;20167;-89
2023/03/31 13:57:18;;;;;;;3.72;2.00;;;;;;;;;;6208643;22;20189;-90
2023/03/31 14:00:33;;;;;;;4.43;2.08;;;;;;;;;;6241401;23;20305;-91
2023/03/31 14:07:55;;;;;;;3.92;2.20;;;;;;;;;;6263514;22;20248;-90
2023/03/31 14:11:16;;;;;;;4.43;1.90;;;;;;;;;;6241979;23;20166;-89
2023/03/31 14:14:22;;;;;;;3.47;1.80;;;;;;;;;;6240186;23;20178;-89
2023/03/31 14:17:30;;;;;;;5.65;2.15;;;;;;;;;;6241990;22;20150;-91
2023/03/31 14:20:42;;;;;;;5.35;2.15;;;;;;;;;;6241015;22;20641;-90
2023/03/31 14:23:52;;;;;;;6.10;2.40;;;;;;;;;;6242021;23;20151;-90
2023/03/31 14:27:02;;;;;;;5.55;2.33;;;;;;;;;;6243624;23;20218;-90
2023/03/31 14:30:12;;;;;;;4.45;2.60;;;;;;;;;;6241073;22;20173;-90
2023/03/31 14:33:25;;;;;;;8.52;3.00;;;;;;;;;;6240745;22;20174;-90
2023/03/31 14:36:36;;;;;;;9.32;3.05;;;;;;;;;;6242147;23;20170;-90
2023/03/31 14:39:43;;;;;;;7.53;2.50;;;;;;;;;;6242083;23;20245;-90
2023/03/31 14:42:49;;;;;;;5.93;2.80;;;;;;;;;;6240692;23;20218;-92
2023/03/31 14:45:58;;;;;;;4.85;2.40;;;;;;;;;;6244685;23;20182;-92
2023/03/31 14:49:16;;;;;;;11.48;3.10;;;;;;;;;;6245859;22;20190;-91
2023/03/31 14:52:23;;;;;;;7.90;3.05;;;;;;;;;;6244864;23;20231;-93
2023/03/31 14:55:30;;;;;;;5.72;2.45;;;;;;;;;;6241622;23;20167;-90
2023/03/31 14:58:38;;;;;;;8.10;3.13;;;;;;;;;;6240361;23;20206;-91
2023/03/31 15:01:47;;;;;;;8.25;3.40;;;;;;;;;;6242524;22;20221;-90
2023/03/31 15:04:57;;;;;;;8.68;3.38;;;;;;;;;;6244317;23;20500;-89
2023/03/31 15:08:04;;;;;;;10.23;3.25;;;;;;;;;;6243072;23;20170;-89
2023/03/31 15:11:12;;;;;;;9.93;3.45;;;;;;;;;;6242579;23;20174;-91
2023/03/31 15:14:17;;;;;;;6.90;3.00;;;;;;;;;;6241601;23;20167;-89
2023/03/31 15:17:24;;;;;;;9.45;2.92;;;;;;;;;;6242655;22;20167;-90
2023/03/31 15:20:35;;;;;;;7.45;2.75;;;;;;;;;;6241795;23;20198;-90
2023/03/31 15:23:41;;;;;;;8.15;3.20;;;;;;;;;;6242997;23;20210;-94
2023/03/31 15:26:48;;;;;;;10.98;3.40;;;;;;;;;;6242252;23;20163;-89
2023/03/31 15:29:56;;;;;;;12.48;3.15;;;;;;;;;;6243354;22;20297;-92
2023/03/31 15:33:01;;;;;;;12.25;3.70;;;;;;;;;;6241450;22;20240;-92
2023/03/31 15:36:08;;;;;;;8.98;3.42;;;;;;;;;;6244308;23;20614;-91
2023/03/31 15:39:14;;;;;;;9.85;3.72;;;;;;;;;;6243193;23;20395;-91
2023/03/31 15:42:21;;;;;;;9.27;3.90;;;;;;;;;;6242919;23;20226;-93
2023/03/31 15:45:37;;;;;;;8.38;4.00;;;;;;;;;;6241785;23;20150;-89
2023/03/31 15:48:50;;;;;;;9.30;3.45;;;;;;;;;;6245341;22;20193;-91
2023/03/31 15:51:59;;;;;;;7.60;3.10;;;;;;;;;;6243624;23;20644;-90
2023/03/31 15:55:26;;;;;;;9.85;3.70;;;;;;;;;;6242844;23;20170;-93
2023/03/31 15:58:48;;;;;;;9.25;5.25;;;;;;;;;;6227354;23;20178;-90
2023/03/31 16:02:02;;;;;;;11.82;4.90;;;;;;;;;;6243313;22;20194;-93
2023/03/31 16:05:08;;;;;;;11.95;3.60;;;;;;;;;;6246550;23;20167;-92
2023/03/31 16:08:17;;;;;;;14.73;5.38;;;;;;;;;;6246420;23;20173;-88
2023/03/31 16:11:24;;;;;;;22.23;10.27;;;;;;;;;;6246284;23;20174;-90
2023/03/31 16:14:31;;;;;;;6.65;2.28;;;;;;;;;;6241408;22;20162;-89
2023/03/31 16:17:38;;;;;;;3.97;1.80;;;;;;;;;;6240822;22;20166;-89
2023/03/31 16:20:52;;;;;;;6.20;2.17;;;;;;;;;;6244879;23;20194;-93
2023/03/31 16:24:00;;;;;;;9.50;3.30;;;;;;;;;;6243897;23;20243;-92
2023/03/31 16:27:08;;;;;;;8.88;3.33;;;;;;;;;;6243307;22;20619;-90
2023/03/31 16:30:15;;;;;;;5.07;2.33;;;;;;;;;;6268054;22;20173;-90
2023/03/31 16:33:21;;;;;;;27.75;11.88;;;;;;;;;;6244733;23;20167;-91
2023/03/31 16:36:31;;;;;;;11.32;4.97;;;;;;;;;;6246679;23;20238;-90
2023/03/31 16:39:40;;;;;;;25.95;12.07;;;;;;;;;;6226519;23;20238;-95
2023/03/31 16:42:45;;;;;;;9.13;3.25;;;;;;;;;;6243322;23;20630;-90
2023/03/31 16:45:51;;;;;;;40.83;21.10;;;;;;;;;;6245736;23;20233;-92
2023/03/31 16:48:56;;;;;;;46.83;24.63;;;;;;;;;;6244561;23;20186;-90
2023/03/31 16:52:01;;;;;;;11.65;4.65;;;;;;;;;;6244923;23;20182;-93
2023/03/31 16:55:09;;;;;;;7.38;3.38;;;;;;;;;;6244226;23;20575;-90
2023/03/31 16:58:15;;;;;;;13.15;4.55;;;;;;;;;;6240464;23;20182;-90
2023/03/31 17:01:22;;;;;;;14.90;4.38;;;;;;;;;;6244657;22;20213;-91
2023/03/31 17:04:28;;;;;;;21.38;8.77;;;;;;;;;;6243488;22;20166;-90
2023/03/31 17:07:34;;;;;;;7.68;3.35;;;;;;;;;;6244499;23;20299;-90
2023/03/31 17:10:44;;;;;;;7.80;3.40;;;;;;;;;;6243718;23;20234;-91
2023/03/31 17:13:51;;;;;;;8.77;2.97;;;;;;;;;;6247351;22;20182;-87
2023/03/31 17:16:57;;;;;;;4.85;1.88;;;;;;;;;;6245081;22;20150;-90
2023/03/31 17:20:05;;;;;;;11.88;2.63;;;;;;;;;;6244838;23;20171;-90
2023/03/31 17:23:54;;;;;;;9.23;4.03;;;;;;;;;;6244019;23;20249;-91
2023/03/31 17:27:05;;;;;;;9.48;3.72;;;;;;;;;;6240529;22;20198;-89
2023/03/31 17:30:11;;;;;;;26.30;11.70;;;;;;;;;;6243535;22;20186;-92
2023/03/31 17:33:17;;;;;;;11.50;4.75;;;;;;;;;;6242196;23;20186;-91
2023/03/31 17:36:24;;;;;;;14.95;4.70;;;;;;;;;;6247794;23;20528;-89
2023/03/31 17:39:30;;;;;;;9.05;3.53;;;;;;;;;;6241656;23;20185;-91
2023/03/31 17:42:37;;;;;;;12.23;5.05;;;;;;;;;;6244851;22;20179;-87
2023/03/31 17:45:43;;;;;;;13.02;4.50;;;;;;;;;;6244952;23;20162;-90
2023/03/31 17:48:48;;;;;;;12.23;4.20;;;;;;;;;;6243892;22;20708;-93
2023/03/31 17:51:53;;;;;;;9.90;3.13;;;;;;;;;;6245356;23;20194;-91
2023/03/31 17:54:59;;;;;;;13.88;3.30;;;;;;;;;;6244286;23;20213;-92
2023/03/31 17:58:07;;;;;;;13.95;4.38;;;;;;;;;;6261985;22;20223;-91
2023/03/31 18:01:14;;;;;;;20.08;6.50;;;;;;;;;;6246691;23;20190;-89
2023/03/31 18:04:20;;;;;;;10.82;4.38;;;;;;;;;;6245119;23;20642;-90
2023/03/31 18:07:26;;;;;;;10.13;4.85;;;;;;;;;;6244108;23;20194;-90
2023/03/31 18:10:32;;;;;;;10.57;2.83;;;;;;;;;;6242901;23;20162;-91
2023/03/31 18:13:38;;;;;;;5.05;1.50;;;;;;;;;;6242164;23;20162;-89
2023/03/31 18:16:44;;;;;;;2.65;1.20;;;;;;;;;;6244052;22;20239;-94
2023/03/31 18:19:49;;;;;;;5.70;1.38;;;;;;;;;;6242477;23;20217;-92
2023/03/31 18:22:59;;;;;;;3.35;1.48;;;;;;;;;;6242336;23;20241;-91
2023/03/31 18:26:06;;;;;;;2.65;1.30;;;;;;;;;;6246139;23;20286;-93
2023/03/31 18:29:13;;;;;;;3.15;1.00;;;;;;;;;;6242975;22;20289;-91
2023/03/31 18:32:18;;;;;;;3.67;1.10;;;;;;;;;;6242624;22;20162;-90
2023/03/31 18:35:23;;;;;;;3.03;1.30;;;;;;;;;;6245004;23;20170;-90
2023/03/31 18:38:29;;;;;;;2.53;1.20;;;;;;;;;;6244369;23;20163;-92
2023/03/31 18:41:34;;;;;;;5.20;1.35;;;;;;;;;;6245033;23;20197;-92
2023/03/31 18:44:41;;;;;;;6.63;2.33;;;;;;;;;;6245158;23;20206;-88